Time;durP1;ratioP1;P1;durP2;ratioP2;P2;SDS_P1;SDS_P2;PMS_P1;PMS_P2;Temp;Humidity;BMP_temperature;BMP_pressure;BME280_temperature;BME280_humidity;BME280_pressure;Samples;Min_cycle;Max_cycle;Signal;HPM_P1;HPM_P2
2023/06/13 00:01:27;;;;;;;10.13;7.10;;;;;;;;;;4966753;28;21018;-85
2023/06/13 00:03:55;;;;;;;7.80;7.20;;;;;;;;;;4958044;28;20417;-89
2023/06/13 00:06:22;;;;;;;7.17;6.40;;;;;;;;;;4963973;28;20449;-88
2023/06/13 00:08:50;;;;;;;9.05;7.45;;;;;;;;;;4974028;28;20461;-86
2023/06/13 00:11:17;;;;;;;12.43;7.33;;;;;;;;;;4962757;28;20199;-85
2023/06/13 00:13:47;;;;;;;7.43;6.82;;;;;;;;;;4959329;28;20476;-87
2023/06/13 00:16:15;;;;;;;7.53;6.83;;;;;;;;;;4963298;28;20203;-84
2023/06/13 00:18:43;;;;;;;7.77;6.87;;;;;;;;;;5006723;23;20509;-86
2023/06/13 00:21:11;;;;;;;7.80;7.10;;;;;;;;;;4963556;28;20500;-86
2023/06/13 00:23:39;;;;;;;7.57;6.80;;;;;;;;;;4961603;28;20803;-86
2023/06/13 00:26:06;;;;;;;8.90;8.00;;;;;;;;;;4965259;28;20203;-87
2023/06/13 00:28:35;;;;;;;10.98;9.82;;;;;;;;;;4994700;23;20473;-86
2023/06/13 00:31:03;;;;;;;12.52;9.40;;;;;;;;;;4963031;28;20411;-83
2023/06/13 00:33:31;;;;;;;7.53;6.85;;;;;;;;;;4966014;28;20258;-85
2023/06/13 00:35:58;;;;;;;8.70;7.75;;;;;;;;;;4974238;28;20211;-83
2023/06/13 00:38:28;;;;;;;7.85;6.80;;;;;;;;;;4980248;28;20206;-84
2023/06/13 00:40:56;;;;;;;7.82;7.10;;;;;;;;;;5188574;23;20293;-84
2023/06/13 00:43:26;;;;;;;8.70;7.43;;;;;;;;;;4971775;28;20207;-87
2023/06/13 00:45:55;;;;;;;7.32;6.63;;;;;;;;;;4969210;28;20216;-86
2023/06/13 00:48:23;;;;;;;7.80;6.70;;;;;;;;;;4973109;28;20215;-89
2023/06/13 00:50:51;;;;;;;7.95;7.22;;;;;;;;;;4975449;28;20271;-87
2023/06/13 00:58:47;;;;;;;8.15;7.30;;;;;;;;;;4932213;29;20200;-89
2023/06/13 01:01:19;;;;;;;6.82;6.22;;;;;;;;;;4936423;29;20188;-91
2023/06/13 01:03:46;;;;;;;8.10;7.15;;;;;;;;;;4922098;29;20478;-88
2023/06/13 01:06:14;;;;;;;8.18;7.43;;;;;;;;;;4928668;29;20247;-89
2023/06/13 01:08:42;;;;;;;11.85;7.10;;;;;;;;;;4928974;29;20207;-88
2023/06/13 01:11:28;;;;;;;8.13;6.68;;;;;;;;;;4927828;29;20212;-88
2023/06/13 01:14:01;;;;;;;9.38;7.75;;;;;;;;;;4927585;29;20209;-89
2023/06/13 01:16:35;;;;;;;7.72;7.03;;;;;;;;;;4927496;29;20219;-87
2023/06/13 01:19:11;;;;;;;7.22;6.53;;;;;;;;;;4927179;29;20535;-85
2023/06/13 01:21:39;;;;;;;8.52;7.75;;;;;;;;;;4926541;29;20259;-86
2023/06/13 01:24:12;;;;;;;8.27;7.47;;;;;;;;;;4929948;29;20209;-87
2023/06/13 01:26:49;;;;;;;7.72;7.03;;;;;;;;;;4928110;29;20215;-87
2023/06/13 01:29:17;;;;;;;11.52;6.70;;;;;;;;;;4935941;29;20195;-87
2023/06/13 01:31:46;;;;;;;7.97;7.05;;;;;;;;;;4939316;29;20203;-84
2023/06/13 01:34:14;;;;;;;8.25;7.45;;;;;;;;;;4939414;29;20228;-87
2023/06/13 01:36:42;;;;;;;7.95;7.25;;;;;;;;;;4937622;29;20224;-87
2023/06/13 01:39:09;;;;;;;8.05;7.30;;;;;;;;;;4932418;29;20215;-88
2023/06/13 01:41:41;;;;;;;7.35;6.43;;;;;;;;;;4926519;29;20226;-87
2023/06/13 01:44:20;;;;;;;9.05;8.18;;;;;;;;;;4923957;29;20232;-86
2023/06/13 01:46:48;;;;;;;14.80;7.95;;;;;;;;;;5062014;23;20237;-81
2023/06/13 01:49:20;;;;;;;8.02;6.80;;;;;;;;;;4974326;28;20197;-82
2023/06/13 01:51:51;;;;;;;8.20;7.40;;;;;;;;;;5054123;23;20363;-79
2023/06/13 01:54:22;;;;;;;8.48;7.60;;;;;;;;;;5023521;23;20227;-84
2023/06/13 01:56:50;;;;;;;7.32;6.63;;;;;;;;;;4969069;28;20215;-80
2023/06/13 01:59:20;;;;;;;7.80;7.00;;;;;;;;;;4995756;23;20308;-84
2023/06/13 02:01:48;;;;;;;8.38;7.53;;;;;;;;;;5012785;23;20243;-86
2023/06/13 02:04:16;;;;;;;8.50;7.55;;;;;;;;;;4950491;29;20215;-83
2023/06/13 02:06:43;;;;;;;8.48;7.68;;;;;;;;;;4946133;29;20744;-85
2023/06/13 02:09:11;;;;;;;7.28;6.57;;;;;;;;;;4945386;29;20225;-85
2023/06/13 02:11:39;;;;;;;8.05;7.18;;;;;;;;;;4946887;29;20215;-80
2023/06/13 02:14:07;;;;;;;8.95;8.05;;;;;;;;;;4947607;29;20226;-88
2023/06/13 02:16:34;;;;;;;10.32;8.32;;;;;;;;;;4944013;29;20204;-88
2023/06/13 02:19:03;;;;;;;9.77;8.27;;;;;;;;;;4944337;29;20566;-85
2023/06/13 02:21:31;;;;;;;7.47;6.88;;;;;;;;;;4950051;29;20227;-85
2023/06/13 02:23:58;;;;;;;9.35;7.80;;;;;;;;;;4955614;29;20227;-82
2023/06/13 02:26:28;;;;;;;9.07;7.13;;;;;;;;;;4950569;29;20215;-83
2023/06/13 02:29:00;;;;;;;9.68;6.68;;;;;;;;;;4950620;29;20226;-87
2023/06/13 02:31:28;;;;;;;10.45;8.15;;;;;;;;;;4952773;29;20299;-81
2023/06/13 02:33:56;;;;;;;7.65;6.95;;;;;;;;;;4948240;29;20212;-81
2023/06/13 02:36:23;;;;;;;10.70;8.50;;;;;;;;;;4939138;29;20234;-89
2023/06/13 02:38:50;;;;;;;7.55;6.72;;;;;;;;;;4944306;29;20304;-87
2023/06/13 02:41:18;;;;;;;10.35;8.52;;;;;;;;;;4943528;29;20227;-84
2023/06/13 02:43:48;;;;;;;8.30;7.10;;;;;;;;;;4946523;29;20210;-87
2023/06/13 02:46:16;;;;;;;8.60;7.90;;;;;;;;;;4948728;29;20223;-87
2023/06/13 02:48:44;;;;;;;8.57;7.72;;;;;;;;;;4944625;29;20212;-83
2023/06/13 02:51:11;;;;;;;11.63;8.18;;;;;;;;;;4952259;29;20219;-82
2023/06/13 02:53:39;;;;;;;9.07;7.25;;;;;;;;;;4956973;29;20195;-86
2023/06/13 02:56:06;;;;;;;8.68;7.97;;;;;;;;;;4948883;29;20246;-86
2023/06/13 02:58:34;;;;;;;8.45;7.65;;;;;;;;;;4945642;29;20244;-86
2023/06/13 03:01:02;;;;;;;10.77;7.15;;;;;;;;;;4949772;28;20207;-86
2023/06/13 03:03:29;;;;;;;8.63;7.32;;;;;;;;;;4948099;29;20207;-85
2023/06/13 03:05:59;;;;;;;8.27;7.45;;;;;;;;;;4943248;29;20243;-86
2023/06/13 03:08:27;;;;;;;10.43;8.10;;;;;;;;;;4942896;29;20226;-86
2023/06/13 03:10:54;;;;;;;8.77;7.95;;;;;;;;;;4946689;29;20192;-83
2023/06/13 03:13:22;;;;;;;8.25;7.55;;;;;;;;;;4950599;29;20212;-87
2023/06/13 03:15:51;;;;;;;7.28;6.55;;;;;;;;;;4947556;29;20246;-84
2023/06/13 03:18:19;;;;;;;8.50;7.75;;;;;;;;;;4943259;29;20251;-87
2023/06/13 03:20:47;;;;;;;9.50;8.35;;;;;;;;;;4943343;29;20222;-84
2023/06/13 03:23:15;;;;;;;9.85;8.93;;;;;;;;;;4944586;29;20236;-87
2023/06/13 03:25:43;;;;;;;10.30;8.00;;;;;;;;;;4947618;29;20259;-84
2023/06/13 03:28:12;;;;;;;9.55;8.65;;;;;;;;;;5081329;23;20243;-85
2023/06/13 03:30:40;;;;;;;8.15;7.53;;;;;;;;;;4927344;29;20707;-85
2023/06/13 03:33:07;;;;;;;12.80;8.30;;;;;;;;;;4927617;29;20239;-86
2023/06/13 03:35:35;;;;;;;10.68;8.25;;;;;;;;;;4927080;29;20232;-80
2023/06/13 03:38:03;;;;;;;8.90;8.13;;;;;;;;;;4926121;29;20192;-88
2023/06/13 03:40:30;;;;;;;8.75;7.95;;;;;;;;;;4926657;29;20219;-85
2023/06/13 03:42:57;;;;;;;8.75;7.90;;;;;;;;;;4924847;29;20209;-87
2023/06/13 03:45:25;;;;;;;17.73;8.82;;;;;;;;;;4925081;29;20232;-86
2023/06/13 03:47:52;;;;;;;9.48;8.00;;;;;;;;;;4923434;29;20566;-87
2023/06/13 03:50:20;;;;;;;10.05;7.22;;;;;;;;;;4927332;29;20268;-84
2023/06/13 03:52:47;;;;;;;9.70;8.68;;;;;;;;;;4930646;29;20216;-82
2023/06/13 03:55:15;;;;;;;14.65;8.82;;;;;;;;;;4932071;29;20618;-85
2023/06/13 03:57:45;;;;;;;13.90;7.43;;;;;;;;;;4930759;29;20196;-90
2023/06/13 04:00:19;;;;;;;13.38;7.40;;;;;;;;;;4930989;29;20276;-90
2023/06/13 04:02:47;;;;;;;14.63;7.68;;;;;;;;;;4930178;29;20430;-82
2023/06/13 04:05:16;;;;;;;8.35;7.47;;;;;;;;;;4926263;29;20228;-85
2023/06/13 04:07:44;;;;;;;9.00;8.10;;;;;;;;;;4926101;29;20280;-86
2023/06/13 04:10:12;;;;;;;8.88;7.95;;;;;;;;;;4926109;29;20442;-84
2023/06/13 04:12:40;;;;;;;10.75;8.10;;;;;;;;;;4931668;29;20247;-82
2023/06/13 04:15:07;;;;;;;10.52;7.63;;;;;;;;;;4925859;29;20594;-88
2023/06/13 04:17:36;;;;;;;9.70;7.72;;;;;;;;;;4956401;28;20527;-84
2023/06/13 04:20:05;;;;;;;10.50;7.03;;;;;;;;;;4927878;29;20273;-85
2023/06/13 04:22:35;;;;;;;10.57;8.25;;;;;;;;;;4928749;29;20259;-88
2023/06/13 04:25:03;;;;;;;14.25;8.70;;;;;;;;;;4926570;29;20215;-85
2023/06/13 04:27:31;;;;;;;8.98;7.80;;;;;;;;;;4933142;29;20188;-86
2023/06/13 04:29:59;;;;;;;8.05;7.35;;;;;;;;;;4933061;29;20716;-87
2023/06/13 04:32:28;;;;;;;8.40;7.53;;;;;;;;;;4927140;29;20458;-87
2023/06/13 04:34:58;;;;;;;11.38;7.65;;;;;;;;;;4926076;29;20307;-83
2023/06/13 04:37:26;;;;;;;9.70;8.70;;;;;;;;;;4924717;29;20385;-84
2023/06/13 04:39:55;;;;;;;11.75;7.93;;;;;;;;;;4925690;29;20205;-83
2023/06/13 04:42:29;;;;;;;12.32;8.75;;;;;;;;;;4925662;29;20234;-88
2023/06/13 04:45:01;;;;;;;13.52;7.85;;;;;;;;;;4921521;29;20237;-84
2023/06/13 04:47:30;;;;;;;8.07;7.38;;;;;;;;;;4920695;29;20501;-84
2023/06/13 04:50:21;;;;;;;10.18;7.32;;;;;;;;;;4925756;29;20205;-84
2023/06/13 04:52:53;;;;;;;9.52;7.85;;;;;;;;;;4926395;29;20436;-84
2023/06/13 04:55:22;;;;;;;9.80;7.82;;;;;;;;;;4930692;29;20208;-84
2023/06/13 04:57:50;;;;;;;7.97;6.88;;;;;;;;;;4932112;29;20288;-85
2023/06/13 05:00:20;;;;;;;9.60;8.30;;;;;;;;;;4928414;29;20205;-82
2023/06/13 05:02:50;;;;;;;9.30;7.60;;;;;;;;;;4922773;29;20216;-82
2023/06/13 05:05:20;;;;;;;10.43;8.07;;;;;;;;;;4924757;29;20268;-84
2023/06/13 05:07:48;;;;;;;9.55;7.95;;;;;;;;;;4925930;29;20204;-86
2023/06/13 05:10:16;;;;;;;16.20;6.75;;;;;;;;;;4926860;29;20774;-83
2023/06/13 05:12:45;;;;;;;10.63;8.93;;;;;;;;;;4928615;29;20292;-87
2023/06/13 05:15:16;;;;;;;9.10;7.03;;;;;;;;;;4927151;29;20462;-86
2023/06/13 05:17:48;;;;;;;9.77;7.47;;;;;;;;;;4926636;29;20468;-86
2023/06/13 05:20:15;;;;;;;15.80;6.53;;;;;;;;;;4928148;29;20769;-89
2023/06/13 05:22:43;;;;;;;9.60;8.53;;;;;;;;;;4931557;29;20511;-84
2023/06/13 05:25:11;;;;;;;11.70;7.40;;;;;;;;;;4935898;29;20449;-83
2023/06/13 05:27:39;;;;;;;13.07;7.40;;;;;;;;;;4936112;29;20455;-88
2023/06/13 05:30:11;;;;;;;10.20;7.63;;;;;;;;;;4932210;29;20423;-87
2023/06/13 05:32:39;;;;;;;8.23;6.50;;;;;;;;;;4929504;29;20432;-86
2023/06/13 05:35:08;;;;;;;8.33;6.70;;;;;;;;;;4927990;29;20477;-86
2023/06/13 05:37:39;;;;;;;7.83;6.90;;;;;;;;;;4928195;29;20923;-84
2023/06/13 05:40:12;;;;;;;8.07;6.23;;;;;;;;;;5149388;23;20490;-84
2023/06/13 05:42:40;;;;;;;7.37;6.67;;;;;;;;;;4964879;28;20510;-83
2023/06/13 05:45:08;;;;;;;8.60;6.73;;;;;;;;;;4967460;28;20476;-81
2023/06/13 05:47:36;;;;;;;9.20;6.93;;;;;;;;;;4967058;28;20451;-84
2023/06/13 05:50:04;;;;;;;6.83;5.80;;;;;;;;;;4966385;28;20548;-86
2023/06/13 05:52:33;;;;;;;6.10;5.60;;;;;;;;;;4964181;28;20453;-84
2023/06/13 05:55:01;;;;;;;11.33;6.40;;;;;;;;;;4962500;28;20812;-86
2023/06/13 05:57:39;;;;;;;6.73;6.10;;;;;;;;;;4961906;28;20479;-82
2023/06/13 06:00:11;;;;;;;7.20;6.10;;;;;;;;;;4962568;28;20468;-79
2023/06/13 06:02:42;;;;;;;13.03;6.67;;;;;;;;;;4957751;28;20452;-87
2023/06/13 06:05:11;;;;;;;11.30;5.90;;;;;;;;;;4960655;28;20458;-82
2023/06/13 06:07:38;;;;;;;5.90;5.30;;;;;;;;;;4959214;28;20431;-84
2023/06/13 06:10:06;;;;;;;7.23;6.07;;;;;;;;;;4959391;28;20452;-83
2023/06/13 06:12:34;;;;;;;6.87;6.27;;;;;;;;;;4957523;28;20455;-82
2023/06/13 06:15:02;;;;;;;5.80;5.30;;;;;;;;;;4959287;28;20440;-82
2023/06/13 06:17:29;;;;;;;6.00;5.50;;;;;;;;;;4962975;28;20422;-81
2023/06/13 06:19:58;;;;;;;8.53;5.90;;;;;;;;;;4958173;28;20446;-85
2023/06/13 06:22:25;;;;;;;6.70;5.77;;;;;;;;;;4961978;28;20455;-84
2023/06/13 06:24:52;;;;;;;11.63;6.43;;;;;;;;;;4968607;28;20426;-78
2023/06/13 06:27:20;;;;;;;7.00;5.30;;;;;;;;;;4965120;28;20462;-78
2023/06/13 06:29:47;;;;;;;8.13;5.83;;;;;;;;;;4972061;28;20845;-85
2023/06/13 06:32:16;;;;;;;6.20;4.97;;;;;;;;;;4963266;28;20432;-80
2023/06/13 06:34:44;;;;;;;7.03;5.63;;;;;;;;;;4962594;28;20454;-87
2023/06/13 06:37:13;;;;;;;6.93;5.60;;;;;;;;;;4958268;28;20495;-83
2023/06/13 06:39:40;;;;;;;6.17;5.57;;;;;;;;;;4966281;28;20471;-84
2023/06/13 06:42:07;;;;;;;11.60;5.13;;;;;;;;;;4967232;28;20415;-80
2023/06/13 06:44:35;;;;;;;5.80;5.30;;;;;;;;;;4970311;28;20448;-82
2023/06/13 06:47:11;;;;;;;5.83;5.23;;;;;;;;;;4962601;28;20432;-81
2023/06/13 06:49:39;;;;;;;8.30;4.97;;;;;;;;;;4966824;28;20508;-84
2023/06/13 06:52:06;;;;;;;8.70;5.33;;;;;;;;;;4961138;28;20442;-83
2023/06/13 06:54:34;;;;;;;10.63;4.93;;;;;;;;;;4953753;28;20424;-85
2023/06/13 06:57:03;;;;;;;5.83;5.30;;;;;;;;;;4956655;28;20487;-83
2023/06/13 06:59:30;;;;;;;5.10;4.67;;;;;;;;;;4958666;28;20661;-82
2023/06/13 07:01:58;;;;;;;6.20;5.70;;;;;;;;;;4953115;28;20599;-79
2023/06/13 07:04:26;;;;;;;5.37;4.60;;;;;;;;;;4958884;28;20445;-85
2023/06/13 07:06:53;;;;;;;7.60;5.20;;;;;;;;;;4957905;28;20432;-80
2023/06/13 07:09:21;;;;;;;5.00;4.50;;;;;;;;;;4955848;28;20710;-83
2023/06/13 07:11:48;;;;;;;12.23;5.73;;;;;;;;;;4956128;28;20441;-81
2023/06/13 07:14:18;;;;;;;4.53;4.10;;;;;;;;;;4954604;28;20445;-86
2023/06/13 07:16:48;;;;;;;9.20;4.73;;;;;;;;;;4959022;28;20483;-83
2023/06/13 07:19:16;;;;;;;4.73;4.33;;;;;;;;;;4959484;28;20456;-82
2023/06/13 07:21:43;;;;;;;5.00;4.50;;;;;;;;;;4957797;28;20434;-79
2023/06/13 07:24:14;;;;;;;5.60;4.30;;;;;;;;;;4956504;28;20452;-82
2023/06/13 07:26:41;;;;;;;6.37;5.07;;;;;;;;;;4958505;28;20427;-83
2023/06/13 07:29:08;;;;;;;4.40;4.00;;;;;;;;;;4960361;28;20441;-85
2023/06/13 07:31:37;;;;;;;5.50;5.10;;;;;;;;;;4959027;28;20444;-84
2023/06/13 07:34:05;;;;;;;12.03;4.80;;;;;;;;;;4956608;28;20714;-87
2023/06/13 07:36:45;;;;;;;5.70;4.73;;;;;;;;;;4956936;28;20489;-82
2023/06/13 07:39:14;;;;;;;6.50;4.97;;;;;;;;;;4950797;28;20464;-85
2023/06/13 07:41:44;;;;;;;5.90;4.40;;;;;;;;;;4954597;28;20510;-84
2023/06/13 07:44:11;;;;;;;4.93;4.40;;;;;;;;;;4957486;28;20507;-80
2023/06/13 07:46:39;;;;;;;4.23;3.83;;;;;;;;;;4960203;29;20486;-79
2023/06/13 07:49:06;;;;;;;3.83;3.53;;;;;;;;;;4958288;28;20607;-80
2023/06/13 07:51:34;;;;;;;4.83;3.97;;;;;;;;;;4957987;28;20447;-83
2023/06/13 07:54:02;;;;;;;4.50;4.20;;;;;;;;;;4957258;28;20420;-83
2023/06/13 07:56:29;;;;;;;4.33;4.03;;;;;;;;;;4958282;28;20477;-86
2023/06/13 07:58:57;;;;;;;4.00;3.60;;;;;;;;;;4957468;28;20656;-82
2023/06/13 08:01:24;;;;;;;4.97;4.50;;;;;;;;;;4958015;28;20424;-85
2023/06/13 08:03:52;;;;;;;4.07;3.77;;;;;;;;;;4957071;28;20479;-81
2023/06/13 08:06:19;;;;;;;3.97;3.67;;;;;;;;;;4958237;28;20424;-84
2023/06/13 08:08:46;;;;;;;5.37;4.50;;;;;;;;;;4956036;28;20445;-82
2023/06/13 08:11:14;;;;;;;4.67;4.03;;;;;;;;;;4952826;28;20428;-79
2023/06/13 08:13:42;;;;;;;7.40;4.67;;;;;;;;;;4956428;28;20448;-81
2023/06/13 08:16:09;;;;;;;4.10;3.80;;;;;;;;;;4957921;28;20471;-83
2023/06/13 08:18:38;;;;;;;4.80;4.40;;;;;;;;;;4956959;28;20449;-83
2023/06/13 08:21:05;;;;;;;4.20;3.90;;;;;;;;;;4955855;28;20483;-82
2023/06/13 08:23:33;;;;;;;5.43;4.53;;;;;;;;;;4957308;28;20588;-82
2023/06/13 08:26:00;;;;;;;4.67;4.20;;;;;;;;;;4958611;28;20448;-82
2023/06/13 08:28:29;;;;;;;7.00;5.10;;;;;;;;;;4957538;28;20447;-84
2023/06/13 08:30:57;;;;;;;5.13;4.70;;;;;;;;;;4958027;28;20708;-82
2023/06/13 08:33:45;;;;;;;5.33;4.07;;;;;;;;;;4950990;29;20496;-80
2023/06/13 08:36:35;;;;;;;5.17;4.57;;;;;;;;;;4959108;28;20527;-83
2023/06/13 08:39:07;;;;;;;4.87;4.47;;;;;;;;;;4960443;28;20434;-86
2023/06/13 08:41:35;;;;;;;5.67;4.80;;;;;;;;;;4960765;28;20520;-84
2023/06/13 08:44:03;;;;;;;4.40;4.10;;;;;;;;;;4961027;28;20445;-82
2023/06/13 08:46:30;;;;;;;4.67;4.30;;;;;;;;;;4961485;28;20465;-79
2023/06/13 08:48:58;;;;;;;4.73;4.33;;;;;;;;;;4962483;28;20480;-81
2023/06/13 08:51:28;;;;;;;4.17;3.87;;;;;;;;;;4963464;28;20516;-81
2023/06/13 08:53:59;;;;;;;9.40;5.10;;;;;;;;;;4962853;28;20445;-83
2023/06/13 08:56:28;;;;;;;4.63;4.20;;;;;;;;;;4961541;28;20487;-82
2023/06/13 08:59:08;;;;;;;4.30;4.00;;;;;;;;;;4960458;28;20552;-83
2023/06/13 09:01:37;;;;;;;4.87;4.37;;;;;;;;;;4959890;28;20440;-84
2023/06/13 09:04:06;;;;;;;4.70;4.40;;;;;;;;;;4963576;28;20793;-80
2023/06/13 09:06:37;;;;;;;5.40;4.40;;;;;;;;;;4965344;28;20453;-80
2023/06/13 09:09:07;;;;;;;4.93;4.53;;;;;;;;;;4962491;28;20441;-84
2023/06/13 09:11:35;;;;;;;5.00;4.67;;;;;;;;;;4960879;28;20443;-83
2023/06/13 09:14:04;;;;;;;4.57;4.27;;;;;;;;;;4962398;28;21045;-80
2023/06/13 09:16:32;;;;;;;4.77;4.37;;;;;;;;;;4961143;28;20477;-83
2023/06/13 09:19:00;;;;;;;4.77;4.37;;;;;;;;;;4961518;28;20532;-80
2023/06/13 09:21:28;;;;;;;5.17;4.77;;;;;;;;;;4961065;28;20492;-83
2023/06/13 09:23:56;;;;;;;5.27;4.87;;;;;;;;;;4961168;28;20454;-79
2023/06/13 09:26:27;;;;;;;6.60;4.83;;;;;;;;;;4960566;28;20437;-85
2023/06/13 09:28:54;;;;;;;5.20;4.73;;;;;;;;;;4975134;28;20505;-81
2023/06/13 09:31:22;;;;;;;5.80;5.20;;;;;;;;;;4975202;28;20469;-80
2023/06/13 09:33:50;;;;;;;7.07;5.47;;;;;;;;;;4969473;28;20459;-78
2023/06/13 09:36:18;;;;;;;6.10;5.50;;;;;;;;;;4962888;28;20497;-80
2023/06/13 09:38:46;;;;;;;5.13;4.63;;;;;;;;;;4960325;28;20748;-80
2023/06/13 09:41:14;;;;;;;4.47;4.17;;;;;;;;;;4970507;28;20820;-81
2023/06/13 09:43:42;;;;;;;6.20;5.30;;;;;;;;;;4965744;28;20427;-79
2023/06/13 09:46:10;;;;;;;5.03;4.63;;;;;;;;;;4964321;28;20772;-84
2023/06/13 09:48:38;;;;;;;4.47;4.10;;;;;;;;;;4960557;28;20443;-81
2023/06/13 09:51:11;;;;;;;6.93;4.20;;;;;;;;;;4961332;28;20456;-80
2023/06/13 09:53:39;;;;;;;5.00;4.20;;;;;;;;;;4960674;28;20452;-83
2023/06/13 09:56:10;;;;;;;4.17;3.77;;;;;;;;;;4963906;28;20782;-83
2023/06/13 09:58:38;;;;;;;5.37;4.97;;;;;;;;;;4970397;28;20434;-83
2023/06/13 10:01:12;;;;;;;4.60;4.30;;;;;;;;;;4972576;28;20445;-82
2023/06/13 10:03:41;;;;;;;5.47;5.00;;;;;;;;;;4970562;28;20446;-84
2023/06/13 10:06:08;;;;;;;5.60;4.93;;;;;;;;;;4962640;28;21076;-79
2023/06/13 10:08:35;;;;;;;8.90;5.27;;;;;;;;;;4959533;28;20516;-80
2023/06/13 10:11:07;;;;;;;6.70;5.00;;;;;;;;;;4961157;28;20430;-82
2023/06/13 10:13:40;;;;;;;5.37;4.10;;;;;;;;;;4961368;28;20420;-81
2023/06/13 10:16:07;;;;;;;6.23;4.13;;;;;;;;;;4960582;28;20424;-80
2023/06/13 10:18:37;;;;;;;5.33;5.03;;;;;;;;;;4965829;28;20449;-81
2023/06/13 10:21:11;;;;;;;6.43;5.10;;;;;;;;;;4965067;28;20414;-81
2023/06/13 10:23:43;;;;;;;4.93;4.57;;;;;;;;;;4963965;28;20492;-82
2023/06/13 10:26:15;;;;;;;5.50;4.33;;;;;;;;;;4960679;28;20475;-81
2023/06/13 10:28:53;;;;;;;10.03;4.87;;;;;;;;;;4959151;28;20433;-80
2023/06/13 10:31:26;;;;;;;4.40;4.10;;;;;;;;;;4960186;28;20432;-81
2023/06/13 10:34:03;;;;;;;7.13;5.20;;;;;;;;;;4953067;28;20603;-81
2023/06/13 10:37:00;;;;;;;4.40;4.10;;;;;;;;;;4961990;28;20458;-80
2023/06/13 10:39:53;;;;;;;6.60;4.70;;;;;;;;;;4966507;28;20769;-80
2023/06/13 10:42:29;;;;;;;5.50;4.93;;;;;;;;;;4961973;28;20451;-81
2023/06/13 10:45:02;;;;;;;4.80;4.23;;;;;;;;;;4954940;28;20427;-82
2023/06/13 10:47:30;;;;;;;4.63;4.23;;;;;;;;;;4953439;28;20420;-79
2023/06/13 10:49:59;;;;;;;4.90;4.40;;;;;;;;;;4959288;28;20456;-81
2023/06/13 10:52:29;;;;;;;4.97;4.57;;;;;;;;;;4957884;28;20421;-81
2023/06/13 10:55:01;;;;;;;5.17;4.70;;;;;;;;;;4958807;28;20424;-82
2023/06/13 10:57:48;;;;;;;5.77;4.10;;;;;;;;;;4958944;28;20447;-81
2023/06/13 11:00:38;;;;;;;4.17;3.87;;;;;;;;;;4958533;28;20594;-81
2023/06/13 11:03:08;;;;;;;3.93;3.63;;;;;;;;;;4958450;28;20424;-84
2023/06/13 11:05:38;;;;;;;5.07;3.60;;;;;;;;;;4968662;28;20446;-80
2023/06/13 11:08:32;;;;;;;4.80;4.37;;;;;;;;;;4960182;28;20459;-81
2023/06/13 11:11:02;;;;;;;5.87;4.20;;;;;;;;;;4951764;28;20732;-81
2023/06/13 11:13:34;;;;;;;3.83;3.63;;;;;;;;;;4958514;29;20567;-83
2023/06/13 11:16:18;;;;;;;4.67;4.27;;;;;;;;;;4959313;28;20481;-83
2023/06/13 11:18:47;;;;;;;3.87;3.57;;;;;;;;;;4958254;28;20817;-79
2023/06/13 11:21:15;;;;;;;4.93;3.40;;;;;;;;;;4959256;28;20487;-82
2023/06/13 11:23:45;;;;;;;6.13;4.87;;;;;;;;;;4959412;28;20495;-82
2023/06/13 11:26:13;;;;;;;8.20;4.53;;;;;;;;;;4959276;28;20471;-83
2023/06/13 11:28:40;;;;;;;5.30;4.50;;;;;;;;;;4959381;28;20460;-80
2023/06/13 11:31:07;;;;;;;4.33;4.00;;;;;;;;;;4958997;28;20449;-83
2023/06/13 11:33:36;;;;;;;5.07;4.57;;;;;;;;;;4958768;28;20466;-82
2023/06/13 11:36:04;;;;;;;5.30;4.80;;;;;;;;;;4959455;28;20431;-82
2023/06/13 11:38:34;;;;;;;5.20;4.43;;;;;;;;;;4959224;28;20526;-81
2023/06/13 11:41:02;;;;;;;3.53;3.23;;;;;;;;;;4960475;28;20771;-79
2023/06/13 11:43:29;;;;;;;6.90;4.00;;;;;;;;;;4960343;28;20475;-83
2023/06/13 11:45:58;;;;;;;7.30;4.20;;;;;;;;;;4959093;28;20788;-82
2023/06/13 11:48:26;;;;;;;3.90;3.70;;;;;;;;;;4961421;28;20516;-84
2023/06/13 11:51:23;;;;;;;4.60;3.90;;;;;;;;;;4956074;28;20434;-83
2023/06/13 11:53:53;;;;;;;3.70;3.40;;;;;;;;;;4963738;28;20506;-81
2023/06/13 11:56:22;;;;;;;4.87;4.37;;;;;;;;;;4964418;28;20455;-82
2023/06/13 11:58:49;;;;;;;3.60;3.30;;;;;;;;;;4969288;28;20479;-80
2023/06/13 12:01:17;;;;;;;3.77;3.47;;;;;;;;;;4959637;28;20449;-84
2023/06/13 12:03:46;;;;;;;4.50;4.20;;;;;;;;;;4963792;28;20424;-83
2023/06/13 12:06:14;;;;;;;4.30;4.00;;;;;;;;;;4965916;28;20416;-81
2023/06/13 12:08:44;;;;;;;4.87;4.47;;;;;;;;;;4960280;28;20424;-79
2023/06/13 12:11:13;;;;;;;4.67;4.13;;;;;;;;;;4960284;28;20480;-84
2023/06/13 12:13:56;;;;;;;15.93;5.20;;;;;;;;;;4961153;28;20423;-81
2023/06/13 12:16:24;;;;;;;4.77;4.10;;;;;;;;;;4962244;28;20465;-83
2023/06/13 12:18:53;;;;;;;5.03;4.53;;;;;;;;;;4961925;28;20443;-82
2023/06/13 12:21:27;;;;;;;7.00;4.93;;;;;;;;;;4962010;28;20647;-80
2023/06/13 12:24:02;;;;;;;3.83;3.53;;;;;;;;;;4962465;28;20500;-83
2023/06/13 12:26:33;;;;;;;5.30;3.90;;;;;;;;;;4963100;28;20427;-83
2023/06/13 12:29:02;;;;;;;3.90;3.57;;;;;;;;;;4961053;28;20427;-79
2023/06/13 12:31:33;;;;;;;7.23;4.60;;;;;;;;;;4962175;28;20464;-78
2023/06/13 12:34:16;;;;;;;4.17;3.80;;;;;;;;;;4962709;28;20469;-82
2023/06/13 12:36:44;;;;;;;4.37;4.07;;;;;;;;;;4963478;28;20427;-85
2023/06/13 12:39:14;;;;;;;4.70;4.30;;;;;;;;;;4960414;28;20453;-79
2023/06/13 12:41:48;;;;;;;4.23;3.93;;;;;;;;;;4959065;28;20464;-83
2023/06/13 12:44:16;;;;;;;4.23;3.90;;;;;;;;;;4960391;28;20422;-84
2023/06/13 12:46:45;;;;;;;4.33;4.13;;;;;;;;;;4961564;28;20525;-81
2023/06/13 12:49:14;;;;;;;3.80;3.50;;;;;;;;;;4959575;28;20471;-82
2023/06/13 12:51:43;;;;;;;3.93;3.63;;;;;;;;;;4961232;28;20548;-85
2023/06/13 12:54:17;;;;;;;4.67;4.37;;;;;;;;;;4959683;28;20528;-84
2023/06/13 12:57:06;;;;;;;5.30;4.80;;;;;;;;;;4962099;28;20768;-80
2023/06/13 12:59:38;;;;;;;4.70;4.20;;;;;;;;;;4964466;28;20478;-80
2023/06/13 13:02:07;;;;;;;6.47;5.90;;;;;;;;;;4966327;28;20426;-81
2023/06/13 13:04:36;;;;;;;4.83;4.43;;;;;;;;;;4962534;28;20710;-83
2023/06/13 13:07:05;;;;;;;9.20;6.20;;;;;;;;;;4964655;28;20499;-83
2023/06/13 13:09:33;;;;;;;4.43;4.13;;;;;;;;;;4970653;28;20455;-83
2023/06/13 13:12:02;;;;;;;4.27;3.97;;;;;;;;;;4970856;28;20444;-79
2023/06/13 13:14:29;;;;;;;4.53;4.13;;;;;;;;;;4963533;28;20449;-80
2023/06/13 13:16:57;;;;;;;5.03;4.63;;;;;;;;;;4955906;28;20679;-85
2023/06/13 13:19:25;;;;;;;5.00;4.60;;;;;;;;;;4963762;28;20444;-84
2023/06/13 13:21:53;;;;;;;5.23;4.87;;;;;;;;;;4962576;28;20451;-83
2023/06/13 13:24:21;;;;;;;5.80;4.63;;;;;;;;;;4964496;28;20744;-80
2023/06/13 13:26:50;;;;;;;4.30;4.10;;;;;;;;;;4963980;28;20424;-79
2023/06/13 13:29:18;;;;;;;5.23;4.87;;;;;;;;;;4968999;28;20471;-82
2023/06/13 13:31:46;;;;;;;4.27;4.00;;;;;;;;;;4979513;28;20462;-82
2023/06/13 13:34:14;;;;;;;3.97;3.57;;;;;;;;;;4975130;28;20420;-82
2023/06/13 13:37:02;;;;;;;4.83;4.53;;;;;;;;;;4959428;29;20412;-81
2023/06/13 13:39:29;;;;;;;4.87;4.50;;;;;;;;;;4964443;28;20416;-84
2023/06/13 13:41:57;;;;;;;4.93;4.57;;;;;;;;;;4963640;28;20893;-80
2023/06/13 13:44:29;;;;;;;4.40;4.00;;;;;;;;;;4962133;28;20530;-84
2023/06/13 13:46:57;;;;;;;4.33;4.00;;;;;;;;;;4963386;28;20473;-81
2023/06/13 13:49:27;;;;;;;4.67;4.37;;;;;;;;;;4967647;28;20497;-80
2023/06/13 13:51:54;;;;;;;5.07;4.73;;;;;;;;;;4962927;28;20457;-82
2023/06/13 13:54:22;;;;;;;4.63;4.20;;;;;;;;;;4963317;28;20456;-84
2023/06/13 13:56:49;;;;;;;4.83;3.80;;;;;;;;;;4962331;28;20474;-82
2023/06/13 13:59:17;;;;;;;4.40;4.00;;;;;;;;;;4963097;28;20459;-79
2023/06/13 14:01:45;;;;;;;4.30;4.00;;;;;;;;;;4963139;28;20456;-80
2023/06/13 14:04:13;;;;;;;5.17;4.77;;;;;;;;;;4955444;28;20463;-81
2023/06/13 14:06:42;;;;;;;4.40;4.10;;;;;;;;;;4963512;28;20424;-80
2023/06/13 14:09:13;;;;;;;4.50;4.20;;;;;;;;;;4959053;28;20457;-82
2023/06/13 14:11:40;;;;;;;4.90;4.40;;;;;;;;;;4962198;28;20764;-83
2023/06/13 14:14:07;;;;;;;5.10;4.67;;;;;;;;;;4963796;28;20449;-83
2023/06/13 14:16:36;;;;;;;4.43;4.13;;;;;;;;;;4964379;28;20442;-83
2023/06/13 14:19:05;;;;;;;5.17;4.77;;;;;;;;;;4963412;28;20518;-85
2023/06/13 14:21:33;;;;;;;7.70;5.47;;;;;;;;;;4967313;28;20473;-82
2023/06/13 14:24:02;;;;;;;5.17;4.77;;;;;;;;;;4965958;28;20430;-82
2023/06/13 14:26:31;;;;;;;6.10;4.93;;;;;;;;;;4980504;28;20435;-86
2023/06/13 14:28:58;;;;;;;5.23;4.57;;;;;;;;;;4984257;28;20492;-79
2023/06/13 14:31:25;;;;;;;4.77;4.43;;;;;;;;;;4968998;29;20452;-82
2023/06/13 14:33:53;;;;;;;6.43;4.30;;;;;;;;;;4962055;28;20815;-79
2023/06/13 14:36:23;;;;;;;5.83;4.40;;;;;;;;;;4969217;28;20424;-85
2023/06/13 14:38:51;;;;;;;4.90;4.47;;;;;;;;;;4960785;28;20470;-83
2023/06/13 14:41:18;;;;;;;6.80;4.57;;;;;;;;;;4963469;28;20443;-81
2023/06/13 14:43:46;;;;;;;4.63;4.23;;;;;;;;;;4960952;28;20471;-80
2023/06/13 14:46:13;;;;;;;4.27;3.87;;;;;;;;;;4960124;28;20424;-84
2023/06/13 14:48:41;;;;;;;4.17;3.87;;;;;;;;;;4961438;28;20448;-86
2023/06/13 14:51:09;;;;;;;5.10;4.70;;;;;;;;;;4962363;28;20585;-84
2023/06/13 14:53:37;;;;;;;4.17;3.87;;;;;;;;;;4960897;28;20458;-79
2023/06/13 14:56:04;;;;;;;5.00;4.50;;;;;;;;;;4961154;28;20416;-84
2023/06/13 14:58:35;;;;;;;5.30;4.43;;;;;;;;;;4960433;28;20460;-81
2023/06/13 15:01:03;;;;;;;5.03;4.20;;;;;;;;;;4967176;28;20467;-80